Pudsey, United Kingdom
Current Conditions -  °F | °C
As of 3:50 AM on Thursday 23 Oct 2014 (Local Time) from EGNM Reporting Station
Broken Clouds Broken Clouds  
Wind Chill: 10°   Ceiling: 2800
Heat Index: 10°   Visibility: 6mi
Dew Point:   Wind: 9mph
Humidity: 82%   Direction: 240°WSW
Pressure: 30"   Gusts: NA
Location:  53.8°N, 1.66°W
Report Text: EGNM 230250Z 24008KT 200V300 9999 BKN028 10/07 Q1016
Loading
Personal Weather Stations






























Interactive Weather Map
Tropical Storm Tracking
New forecast layout! Learn more

10-Day Weather Forecast

Advertisements
Track Severe Weather on mobile